LTAJ Airport Information

Runway Information
Runway 10L Length 9843 ft width 157 ft
Elevation 2315 ft Threshold 427 ft Heading 105
Runway 28R Length 9843 ft Width 157 ft
Elevation 2190 ft Threshold 0 ft Heading 285
Runway 10R Length 9842 ft width 100 ft
Elevation 2309 ft Threshold 328 ft Heading 105
Runway 28L Length 9842 ft Width 100 ft
Elevation 2215 ft Threshold 0 ft Heading 285
Airport Frequencies
Type APP Name APP Frequency 120.1 MHZ
Type ATIS Name Frequency 119.275 MHZ
Type TWR Name TWR Frequency 120.1 MHZ
Airport Navaids
Type VOR-DME Name Gaziantep Frequency 116700 KHZ
Type NDB Name Oguzeli Frequency 432 KHZ
Airport Weather Information & NOTAM
ADDS - METARS form results

(1958 UTC 16 July 2018)
 
METAR text: LTAJ 161920Z 32014KT CAVOK 28/12 Q1005 NOSIG RMK RWY10 32012KT
Conditions at: LTAJ (GAZIANTEP , TR) observed 1920 UTC 16 July 2018
Temperature: 28.0°C (82°F)
Dewpoint: 12.0°C (54°F) [RH = 37%]
Pressure (altimeter): 29.68 inches Hg (1005.0 mb)
Winds: from the NW (320 degrees) at 16 MPH (14 knots; 7.3 m/s)
Visibility: 6 or more miles (10+ km)
Ceiling: ceiling and visibility are OK
Clouds: unknown
Weather: no significant weather observed at this time